createdAt,value
2018-06-28T00:00:56.641Z,14.20
2018-06-28T00:03:26.039Z,14.10
2018-06-28T00:05:56.564Z,14.00
2018-06-28T00:08:25.873Z,14.00
2018-06-28T00:10:55.173Z,13.90
2018-06-28T00:13:24.518Z,13.90
2018-06-28T00:17:24.029Z,13.90
2018-06-28T00:19:53.593Z,13.90
2018-06-28T00:22:22.964Z,14.00
2018-06-28T00:24:52.388Z,14.10
2018-06-28T00:27:22.460Z,14.00
2018-06-28T00:29:51.696Z,14.10
2018-06-28T00:32:20.981Z,13.90
2018-06-28T00:34:50.216Z,13.80
2018-06-28T00:37:19.531Z,13.70
2018-06-28T00:39:48.782Z,13.60
2018-06-28T00:42:18.009Z,13.60
2018-06-28T00:44:47.445Z,13.50
2018-06-28T00:47:16.669Z,13.50
2018-06-28T00:49:47.194Z,13.40
2018-06-28T00:52:16.535Z,13.40
2018-06-28T00:54:45.885Z,13.40
2018-06-28T00:57:15.285Z,13.30
2018-06-28T00:59:45.200Z,13.30
2018-06-28T01:02:14.699Z,13.30
2018-06-28T01:04:44.056Z,13.30
2018-06-28T01:07:13.354Z,13.20
2018-06-28T01:09:42.635Z,13.20
2018-06-28T01:12:11.918Z,13.20
2018-06-28T01:14:41.494Z,13.20
2018-06-28T01:17:11.443Z,13.30
2018-06-28T01:19:40.833Z,13.30
2018-06-28T01:22:10.093Z,13.20
2018-06-28T01:24:39.502Z,13.10
2018-06-28T01:27:08.762Z,13.00
2018-06-28T01:29:38.124Z,12.90
2018-06-28T01:32:07.524Z,12.90
2018-06-28T01:34:36.789Z,12.80
2018-06-28T01:37:06.865Z,12.90
2018-06-28T01:42:16.169Z,12.90
2018-06-28T01:44:45.466Z,12.90
2018-06-28T01:47:14.782Z,12.90
2018-06-28T01:49:44.020Z,12.80
2018-06-28T01:52:13.285Z,12.80
2018-06-28T01:54:42.546Z,12.70
2018-06-28T01:57:12.494Z,12.60
2018-06-28T01:59:41.739Z,12.60
2018-06-28T02:02:11.099Z,12.70
2018-06-28T02:04:40.592Z,12.60
2018-06-28T02:07:09.821Z,12.70
2018-06-28T02:09:39.101Z,12.70
2018-06-28T02:12:08.366Z,12.70
2018-06-28T02:14:37.705Z,12.50
2018-06-28T02:17:07.569Z,12.40
2018-06-28T02:19:37.013Z,12.30
2018-06-28T02:22:06.604Z,12.30
2018-06-28T02:24:37.054Z,12.30
2018-06-28T02:27:06.686Z,12.30
2018-06-28T02:29:35.321Z,12.30
2018-06-28T02:32:03.752Z,12.30
2018-06-28T02:34:32.137Z,12.30
2018-06-28T02:37:00.446Z,12.40
2018-06-28T02:39:29.109Z,12.40
2018-06-28T02:43:26.909Z,12.50
2018-06-28T02:45:55.357Z,12.60
2018-06-28T02:48:23.742Z,12.40
2018-06-28T02:50:52.504Z,12.50
2018-06-28T02:53:21.135Z,12.50
2018-06-28T02:55:49.618Z,12.40
2018-06-28T02:58:17.947Z,12.30
2018-06-28T03:00:46.975Z,12.20
2018-06-28T03:03:15.373Z,12.20
2018-06-28T03:05:44.675Z,12.10
2018-06-28T03:08:13.881Z,12.10
2018-06-28T03:10:43.147Z,12.10
2018-06-28T03:13:12.373Z,12.10
2018-06-28T03:15:41.688Z,12.00
2018-06-28T03:18:11.669Z,11.90
2018-06-28T03:20:41.237Z,11.90
2018-06-28T03:23:11.449Z,11.90
2018-06-28T03:25:40.734Z,11.90
2018-06-28T03:28:10.461Z,11.90
2018-06-28T03:30:40.472Z,12.00
2018-06-28T03:33:09.698Z,12.10
2018-06-28T03:35:39.019Z,12.10
2018-06-28T03:38:08.825Z,12.00
2018-06-28T03:40:38.230Z,11.90
2018-06-28T03:43:07.588Z,11.80
2018-06-28T03:45:37.214Z,11.80
2018-06-28T03:48:06.435Z,11.80
2018-06-28T03:50:35.856Z,11.90
2018-06-28T03:53:05.851Z,12.00
2018-06-28T03:55:35.177Z,12.00
2018-06-28T03:58:04.616Z,11.90
2018-06-28T04:00:33.937Z,11.90
2018-06-28T04:03:03.317Z,11.90
2018-06-28T04:05:32.589Z,11.90
2018-06-28T04:08:02.054Z,11.90
2018-06-28T04:10:32.144Z,12.10
2018-06-28T04:13:01.410Z,12.20
2018-06-28T04:15:30.705Z,12.90
2018-06-28T04:17:59.226Z,14.10
2018-06-28T04:20:28.907Z,15.40
2018-06-28T04:22:57.535Z,16.30
2018-06-28T04:25:28.009Z,16.80
2018-06-28T04:27:58.361Z,18.90
2018-06-28T04:30:27.641Z,19.20
2018-06-28T04:32:56.913Z,20.50
2018-06-28T04:35:26.270Z,20.50
2018-06-28T04:37:55.493Z,20.30
2018-06-28T04:40:24.968Z,20.30
2018-06-28T04:42:55.010Z,22.40
2018-06-28T04:45:24.347Z,22.50
2018-06-28T04:47:53.597Z,23.40
2018-06-28T04:50:22.998Z,22.90
2018-06-28T04:52:52.347Z,22.70
2018-06-28T04:55:22.354Z,23.00
2018-06-28T04:57:52.016Z,23.40
2018-06-28T05:00:21.262Z,23.00
2018-06-28T05:02:50.932Z,23.20
2018-06-28T05:05:20.181Z,23.20
2018-06-28T05:07:49.457Z,23.20
2018-06-28T05:10:18.706Z,23.50
2018-06-28T05:12:48.484Z,24.20
2018-06-28T05:15:17.860Z,25.10
2018-06-28T05:17:47.150Z,25.00
2018-06-28T05:20:16.524Z,24.70
2018-06-28T05:22:46.504Z,25.00
2018-06-28T05:25:15.839Z,24.80
2018-06-28T05:27:45.132Z,23.90
2018-06-28T05:30:14.482Z,24.00
2018-06-28T05:32:44.169Z,25.20
2018-06-28T05:35:14.377Z,24.60
2018-06-28T05:37:43.648Z,24.00
2018-06-28T05:40:14.375Z,23.60
2018-06-28T05:42:43.687Z,22.50
2018-06-28T05:45:13.350Z,21.30
2018-06-28T05:47:42.653Z,20.50
2018-06-28T05:50:12.064Z,19.50
2018-06-28T05:52:42.015Z,19.10
2018-06-28T05:55:11.302Z,19.00
2018-06-28T05:57:39.881Z,18.90
2018-06-28T06:00:09.079Z,18.40
2018-06-28T06:02:40.119Z,18.00
2018-06-28T06:05:09.776Z,17.90
2018-06-28T06:07:39.161Z,17.80
2018-06-28T06:10:09.190Z,17.70
2018-06-28T06:12:38.829Z,17.70
2018-06-28T06:15:08.235Z,17.70
2018-06-28T06:17:37.516Z,17.90
2018-06-28T06:20:10.068Z,17.80
2018-06-28T06:22:39.402Z,18.00
2018-06-28T06:25:08.747Z,18.10
2018-06-28T06:27:38.431Z,18.40
2018-06-28T06:30:08.378Z,18.40
2018-06-28T06:32:38.136Z,18.50
2018-06-28T06:36:36.596Z,18.60
2018-06-28T06:39:09.074Z,18.70
2018-06-28T06:41:39.168Z,18.70
2018-06-28T06:44:10.429Z,18.90
2018-06-28T06:46:39.797Z,18.90
2018-06-28T06:49:09.168Z,18.80
2018-06-28T06:51:38.521Z,19.00
2018-06-28T06:54:07.995Z,19.20
2018-06-28T06:56:37.376Z,19.40
2018-06-28T06:59:07.054Z,19.60
2018-06-28T07:01:36.308Z,19.60
2018-06-28T07:04:05.690Z,19.70
2018-06-28T07:06:35.083Z,19.70
2018-06-28T07:09:08.042Z,19.80
2018-06-28T07:11:38.585Z,20.00
2018-06-28T07:14:08.630Z,20.10
2018-06-28T07:16:38.111Z,20.20
2018-06-28T07:19:07.761Z,20.30
2018-06-28T07:21:38.113Z,20.50
2018-06-28T07:24:07.680Z,20.60
2018-06-28T07:26:37.747Z,20.60
2018-06-28T07:29:07.017Z,20.70
2018-06-28T07:31:36.309Z,20.90
2018-06-28T07:34:05.852Z,21.00
2018-06-28T07:36:35.267Z,21.10
2018-06-28T07:39:08.122Z,21.30
2018-06-28T07:41:37.687Z,21.50
2018-06-28T07:44:07.120Z,21.70
2018-06-28T07:46:37.370Z,21.90
2018-06-28T07:49:06.702Z,22.00
2018-06-28T07:51:36.454Z,22.20
2018-06-28T07:54:05.930Z,22.20
2018-06-28T07:56:35.299Z,22.40
2018-06-28T07:59:04.612Z,22.50
2018-06-28T08:01:34.094Z,22.60
2018-06-28T08:04:03.431Z,22.80
2018-06-28T08:06:33.600Z,22.90
2018-06-28T08:09:03.141Z,22.90
2018-06-28T08:11:33.380Z,22.70
2018-06-28T08:14:02.757Z,22.60
2018-06-28T08:16:32.001Z,22.60
2018-06-28T08:19:01.334Z,22.70
2018-06-28T08:21:30.686Z,22.70
2018-06-28T08:23:59.934Z,22.90
2018-06-28T08:26:29.800Z,23.00
2018-06-28T08:28:59.078Z,23.10
2018-06-28T08:31:29.058Z,23.30
2018-06-28T08:33:59.011Z,23.50
2018-06-28T08:36:28.310Z,23.50
2018-06-28T08:38:58.109Z,23.60
2018-06-28T08:41:27.412Z,23.60
2018-06-28T08:46:25.549Z,23.80
2018-06-28T08:48:55.406Z,23.90
2018-06-28T08:51:24.700Z,23.90
2018-06-28T08:53:54.550Z,24.00
2018-06-28T08:56:24.468Z,24.10
2018-06-28T08:58:53.788Z,24.00
2018-06-28T09:01:23.474Z,23.90
2018-06-28T09:03:53.120Z,23.80
2018-06-28T09:06:22.652Z,23.90
2018-06-28T09:08:52.314Z,23.90
2018-06-28T09:11:22.568Z,24.00
2018-06-28T09:13:51.870Z,24.10
2018-06-28T09:16:22.122Z,24.00
2018-06-28T09:18:51.721Z,24.00
2018-06-28T09:21:21.086Z,23.80
2018-06-28T09:23:50.405Z,23.90
2018-06-28T09:26:19.677Z,23.80
2018-06-28T09:28:49.114Z,23.90
2018-06-28T09:31:18.375Z,23.90
2018-06-28T09:33:47.657Z,23.90
2018-06-28T09:36:16.924Z,23.80
2018-06-28T09:38:46.397Z,23.80
2018-06-28T09:41:15.750Z,23.90
2018-06-28T09:43:45.079Z,24.00
2018-06-28T09:46:14.728Z,24.20
2018-06-28T09:48:44.664Z,24.00
2018-06-28T09:53:42.848Z,24.20
2018-06-28T09:56:12.927Z,24.30
2018-06-28T09:58:42.258Z,24.30
2018-06-28T10:01:11.497Z,24.30
2018-06-28T10:03:40.866Z,24.30
2018-06-28T10:06:11.262Z,24.20
2018-06-28T10:08:40.610Z,24.00
2018-06-28T10:11:09.872Z,24.00
2018-06-28T10:13:39.240Z,24.10
2018-06-28T10:16:08.676Z,24.20
2018-06-28T10:18:37.993Z,24.00
2018-06-28T10:21:08.269Z,23.90
2018-06-28T10:23:37.809Z,23.90
2018-06-28T10:26:07.244Z,23.90
2018-06-28T10:28:36.481Z,24.20
2018-06-28T10:31:07.030Z,24.50
2018-06-28T10:33:36.294Z,24.60
2018-06-28T10:36:05.797Z,24.80
2018-06-28T10:38:35.098Z,25.00
2018-06-28T10:41:04.489Z,24.80
2018-06-28T10:43:34.094Z,24.80
2018-06-28T10:46:03.496Z,24.80
2018-06-28T10:48:33.061Z,24.70
2018-06-28T10:51:02.818Z,24.70
2018-06-28T10:53:32.156Z,24.80
2018-06-28T10:56:01.428Z,24.70
2018-06-28T10:58:30.667Z,24.70
2018-06-28T11:00:59.912Z,24.90
2018-06-28T11:03:29.315Z,24.90
2018-06-28T11:05:58.713Z,24.90
2018-06-28T11:08:28.385Z,25.10
2018-06-28T11:10:57.769Z,25.20
2018-06-28T11:13:27.125Z,25.20
2018-06-28T11:15:56.442Z,25.20
2018-06-28T11:18:25.758Z,25.20
2018-06-28T11:20:55.212Z,25.10
2018-06-28T11:23:24.651Z,24.80
2018-06-28T11:25:53.932Z,24.60
2018-06-28T11:28:23.248Z,24.50
2018-06-28T11:30:53.770Z,24.50
2018-06-28T11:33:23.133Z,24.70
2018-06-28T11:35:52.707Z,24.90
2018-06-28T11:38:22.114Z,25.00
2018-06-28T11:40:51.779Z,25.20
2018-06-28T11:43:21.090Z,25.40
2018-06-28T11:45:50.483Z,25.40
2018-06-28T11:48:20.410Z,25.50
2018-06-28T11:50:50.239Z,25.30
2018-06-28T11:53:19.711Z,25.20
2018-06-28T11:55:49.224Z,25.10
2018-06-28T11:58:18.503Z,25.10
2018-06-28T12:00:48.542Z,25.30
2018-06-28T12:03:17.832Z,25.50
2018-06-28T12:05:47.810Z,25.70
2018-06-28T12:08:17.219Z,25.70
2018-06-28T12:10:46.723Z,25.70
2018-06-28T12:13:16.041Z,25.70
2018-06-28T12:15:46.256Z,25.50
2018-06-28T12:18:16.337Z,25.40
2018-06-28T12:20:45.766Z,25.50
2018-06-28T12:23:15.262Z,25.80
2018-06-28T12:25:45.608Z,25.90
2018-06-28T12:28:14.910Z,25.90
2018-06-28T12:30:44.807Z,26.10
2018-06-28T12:33:14.672Z,26.00
2018-06-28T12:35:44.643Z,25.90
2018-06-28T12:38:15.862Z,26.00
2018-06-28T12:40:45.223Z,26.20
2018-06-28T12:43:14.766Z,26.30
2018-06-28T12:45:44.153Z,26.50
2018-06-28T12:48:14.937Z,26.40
2018-06-28T12:50:44.267Z,26.30
2018-06-28T12:53:13.684Z,26.30
2018-06-28T12:56:49.495Z,26.10
2018-06-28T12:59:20.298Z,26.00
2018-06-28T13:01:50.614Z,26.00
2018-06-28T13:04:20.000Z,25.90
2018-06-28T13:06:50.197Z,25.90
2018-06-28T13:09:20.923Z,26.00
2018-06-28T13:11:51.245Z,26.00
2018-06-28T13:14:20.550Z,26.10
2018-06-28T13:16:49.905Z,26.30
2018-06-28T13:19:19.286Z,26.40
2018-06-28T13:21:48.600Z,26.30
2018-06-28T13:24:20.551Z,26.10
2018-06-28T13:26:49.974Z,26.00
2018-06-28T13:29:19.374Z,25.90
2018-06-28T13:31:49.828Z,26.20
2018-06-28T13:34:19.754Z,26.40
2018-06-28T13:36:49.617Z,26.40
2018-06-28T13:39:19.504Z,26.40
2018-06-28T13:41:49.874Z,26.50
2018-06-28T13:44:19.062Z,26.30
2018-06-28T13:46:48.515Z,26.30
2018-06-28T13:49:18.432Z,26.00
2018-06-28T13:51:49.013Z,26.10
2018-06-28T13:54:19.506Z,26.20
2018-06-28T13:56:50.618Z,26.40
2018-06-28T13:59:20.509Z,26.40
2018-06-28T14:01:50.883Z,26.40
2018-06-28T14:04:20.342Z,26.40
2018-06-28T14:06:51.199Z,26.30
2018-06-28T14:09:20.650Z,26.30
2018-06-28T14:11:50.687Z,26.30
2018-06-28T14:14:21.268Z,26.30
2018-06-28T14:16:51.121Z,26.40
2018-06-28T14:19:20.568Z,26.60
2018-06-28T14:21:50.898Z,26.60
2018-06-28T14:24:20.470Z,26.40
2018-06-28T14:26:50.360Z,26.10
2018-06-28T14:29:19.781Z,26.10
2018-06-28T14:31:49.824Z,26.20
2018-06-28T14:34:19.140Z,26.50
2018-06-28T14:36:49.245Z,26.60
2018-06-28T14:39:18.752Z,26.50
2018-06-28T14:41:49.715Z,26.50
2018-06-28T14:44:20.564Z,26.30
2018-06-28T14:46:50.156Z,26.30
2018-06-28T14:49:20.227Z,26.50
2018-06-28T14:51:50.126Z,26.80
2018-06-28T14:54:20.042Z,27.20
2018-06-28T14:56:49.492Z,27.20
2018-06-28T14:59:18.905Z,27.10
2018-06-28T15:01:48.246Z,26.80
2018-06-28T15:04:17.632Z,26.60
2018-06-28T15:06:47.140Z,26.40
2018-06-28T15:11:47.374Z,26.30
2018-06-28T15:14:16.854Z,26.30
2018-06-28T15:16:46.504Z,26.40
2018-06-28T15:19:16.008Z,26.60
2018-06-28T15:21:45.946Z,26.70
2018-06-28T15:24:16.771Z,26.60
2018-06-28T15:26:46.625Z,26.40
2018-06-28T15:29:16.861Z,26.20
2018-06-28T15:31:46.964Z,26.20
2018-06-28T15:34:17.407Z,26.40
2018-06-28T15:36:47.728Z,26.50
2018-06-28T15:39:17.580Z,26.60
2018-06-28T15:41:48.684Z,26.60
2018-06-28T15:44:19.484Z,26.80
2018-06-28T15:46:49.022Z,26.80
2018-06-28T15:49:19.266Z,26.70
2018-06-28T15:51:50.108Z,26.60
2018-06-28T15:54:19.554Z,26.40
2018-06-28T15:56:49.467Z,26.30
2018-06-28T15:59:19.675Z,26.40
2018-06-28T16:01:50.206Z,26.60
2018-06-28T16:04:20.047Z,26.70
2018-06-28T16:06:49.639Z,26.50
2018-06-28T16:09:18.985Z,26.30
2018-06-28T16:11:48.943Z,26.20
2018-06-28T16:14:18.305Z,26.00
2018-06-28T16:16:47.768Z,26.10
2018-06-28T16:19:17.624Z,26.30
2018-06-28T16:21:47.073Z,26.20
2018-06-28T16:24:17.050Z,26.10
2018-06-28T16:26:46.392Z,26.00
2018-06-28T16:31:46.352Z,25.90
2018-06-28T16:34:15.876Z,25.80
2018-06-28T16:36:45.350Z,25.90
2018-06-28T16:39:15.035Z,26.10
2018-06-28T16:41:44.708Z,26.20
2018-06-28T16:44:14.651Z,26.30
2018-06-28T16:46:43.988Z,26.40
2018-06-28T16:49:14.276Z,26.40
2018-06-28T16:51:43.898Z,26.30
2018-06-28T16:54:13.377Z,26.10
2018-06-28T16:56:42.661Z,26.00
2018-06-28T16:59:12.458Z,25.90
2018-06-28T17:01:41.948Z,25.80
2018-06-28T17:04:11.465Z,25.70
2018-06-28T17:06:40.872Z,25.80
2018-06-28T17:09:10.817Z,25.70
2018-06-28T17:11:40.265Z,25.70
2018-06-28T17:14:10.647Z,25.70
2018-06-28T17:16:40.667Z,25.70
2018-06-28T17:19:10.493Z,25.70
2018-06-28T17:21:39.942Z,25.70
2018-06-28T17:24:10.022Z,25.60
2018-06-28T17:26:40.203Z,25.50
2018-06-28T17:29:09.991Z,25.60
2018-06-28T17:31:39.941Z,25.70
2018-06-28T17:34:10.039Z,25.80
2018-06-28T17:36:39.399Z,25.80
2018-06-28T17:39:09.461Z,25.70
2018-06-28T17:41:39.047Z,25.80
2018-06-28T17:44:09.137Z,25.80
2018-06-28T17:46:39.380Z,25.80
2018-06-28T17:49:09.226Z,25.70
2018-06-28T17:51:38.670Z,25.70
2018-06-28T17:54:08.740Z,25.70
2018-06-28T17:56:38.466Z,25.70
2018-06-28T17:59:07.976Z,25.50
2018-06-28T18:01:38.845Z,25.50
2018-06-28T18:04:08.869Z,25.50
2018-06-28T18:06:39.756Z,25.50
2018-06-28T18:09:10.066Z,25.50
2018-06-28T18:11:39.992Z,25.50
2018-06-28T18:14:09.595Z,25.60
2018-06-28T18:16:40.114Z,25.60
2018-06-28T18:19:10.313Z,25.60
2018-06-28T18:21:40.565Z,25.50
2018-06-28T18:24:10.043Z,25.40
2018-06-28T18:26:40.383Z,25.40
2018-06-28T18:29:11.798Z,25.50
2018-06-28T18:31:41.248Z,25.50
2018-06-28T18:34:10.752Z,25.40
2018-06-28T18:36:41.075Z,25.30
2018-06-28T18:39:10.883Z,25.30
2018-06-28T18:41:40.980Z,25.20
2018-06-28T18:44:11.449Z,25.10
2018-06-28T18:46:41.467Z,25.00
2018-06-28T18:49:11.975Z,25.00
2018-06-28T18:51:42.398Z,24.90
2018-06-28T18:54:13.692Z,24.80
2018-06-28T18:56:45.465Z,24.80
2018-06-28T18:59:16.706Z,24.70
2018-06-28T19:01:46.619Z,24.70
2018-06-28T19:04:17.646Z,24.60
2018-06-28T19:06:48.718Z,24.50
2018-06-28T19:09:19.924Z,24.50
2018-06-28T19:11:51.493Z,24.40
2018-06-28T19:14:27.318Z,24.40
2018-06-28T19:16:57.708Z,24.30
2018-06-28T19:19:28.317Z,24.20
2018-06-28T19:22:03.321Z,24.20
2018-06-28T19:24:33.015Z,24.10
2018-06-28T19:27:02.429Z,24.00
2018-06-28T19:29:38.020Z,24.00
2018-06-28T19:32:13.644Z,23.90
2018-06-28T19:34:43.574Z,23.80
2018-06-28T19:37:19.132Z,23.80
2018-06-28T19:39:54.176Z,23.70
2018-06-28T19:42:29.346Z,23.60
2018-06-28T19:44:59.880Z,23.60
2018-06-28T19:47:31.802Z,23.50
2018-06-28T19:50:06.953Z,23.40
2018-06-28T19:52:42.560Z,23.30
2018-06-28T19:55:13.163Z,23.20
2018-06-28T19:57:44.445Z,23.30
2018-06-28T20:00:19.707Z,23.10
2018-06-28T20:02:55.411Z,23.10
2018-06-28T20:05:26.146Z,23.00
2018-06-28T20:07:55.619Z,22.90
2018-06-28T20:10:26.156Z,22.80
2018-06-28T20:13:01.136Z,22.80
2018-06-28T20:15:47.082Z,22.50
2018-06-28T20:18:22.477Z,22.50
2018-06-28T20:20:54.456Z,22.40
2018-06-28T20:23:26.221Z,22.30
2018-06-28T20:25:56.547Z,22.30
2018-06-28T20:28:31.262Z,22.30
2018-06-28T20:31:06.729Z,22.10
2018-06-28T20:33:41.690Z,22.00
2018-06-28T20:36:11.244Z,21.70
2018-06-28T20:38:42.088Z,21.50
2018-06-28T20:41:13.853Z,21.30
2018-06-28T20:43:44.092Z,21.20
2018-06-28T20:46:14.449Z,21.10
2018-06-28T20:48:44.353Z,21.00
2018-06-28T20:51:14.471Z,20.70
2018-06-28T20:53:45.595Z,20.60
2018-06-28T20:56:15.947Z,20.40
2018-06-28T20:58:46.869Z,20.40
2018-06-28T21:01:17.164Z,20.20
2018-06-28T21:03:47.139Z,20.10
2018-06-28T21:06:16.631Z,19.90
2018-06-28T21:08:46.557Z,19.90
2018-06-28T21:11:17.481Z,19.90
2018-06-28T21:13:48.039Z,19.70
2018-06-28T21:16:17.431Z,19.70
2018-06-28T21:21:16.711Z,19.50
2018-06-28T21:23:46.524Z,19.30
2018-06-28T21:26:15.859Z,19.30
2018-06-28T21:28:45.176Z,19.20
2018-06-28T21:31:16.192Z,19.20
2018-06-28T21:33:45.776Z,19.10
2018-06-28T21:36:15.093Z,19.00
2018-06-28T21:38:45.218Z,18.90
2018-06-28T21:41:15.493Z,18.80
2018-06-28T21:43:45.177Z,18.70
2018-06-28T21:46:15.332Z,18.80
2018-06-28T21:48:44.643Z,18.80
2018-06-28T21:51:15.238Z,18.60
2018-06-28T21:53:45.462Z,18.60
2018-06-28T21:56:15.083Z,18.60
2018-06-28T21:58:45.574Z,18.50
2018-06-28T22:01:15.170Z,18.40
2018-06-28T22:03:45.454Z,18.40
2018-06-28T22:06:15.017Z,18.40
2018-06-28T22:08:45.339Z,18.30
2018-06-28T22:11:15.107Z,18.20
2018-06-28T22:13:44.497Z,18.20
2018-06-28T22:16:14.178Z,18.20
2018-06-28T22:18:43.620Z,18.20
2018-06-28T22:21:13.475Z,18.30
2018-06-28T22:23:43.024Z,18.30
2018-06-28T22:26:12.311Z,18.40
2018-06-28T22:28:41.860Z,18.40
2018-06-28T22:31:11.587Z,18.40
2018-06-28T22:33:41.110Z,18.40
2018-06-28T22:36:12.641Z,18.40
2018-06-28T22:38:43.219Z,18.50
2018-06-28T22:41:13.944Z,18.30
2018-06-28T22:46:13.428Z,18.10
2018-06-28T22:48:42.913Z,18.10
2018-06-28T22:51:12.942Z,18.20
2018-06-28T22:53:42.864Z,18.20
2018-06-28T22:56:12.151Z,18.30
2018-06-28T22:58:41.601Z,18.20
2018-06-28T23:01:11.202Z,18.10
2018-06-28T23:03:40.853Z,18.10
2018-06-28T23:06:10.184Z,18.10
2018-06-28T23:08:39.940Z,18.10
2018-06-28T23:11:10.389Z,18.10
2018-06-28T23:13:40.315Z,18.10
2018-06-28T23:16:10.808Z,17.90
2018-06-28T23:18:40.334Z,17.90
2018-06-28T23:21:09.832Z,17.80
2018-06-28T23:23:39.725Z,17.80
2018-06-28T23:26:09.594Z,17.70
2018-06-28T23:28:38.861Z,17.70
2018-06-28T23:31:07.421Z,17.60
2018-06-28T23:33:36.668Z,17.50
2018-06-28T23:36:06.640Z,17.40
2018-06-28T23:38:36.054Z,17.40
2018-06-28T23:41:04.516Z,17.40
2018-06-28T23:43:32.918Z,17.40
2018-06-28T23:46:02.684Z,17.40
2018-06-28T23:48:31.934Z,17.50
2018-06-28T23:51:01.288Z,17.40
2018-06-28T23:53:30.486Z,17.40
2018-06-28T23:55:59.695Z,17.50
2018-06-28T23:58:28.834Z,17.50
